Accueil
METAR-TAF:

METAR-TAF

Aéroports :

Talkeetna, Alaska, États-Unis

latitude: 62-19-14N, longitude: 150-05-37W, altitude: 109 m

Observation

Le bulletin a été fait il y a 40 minutes, à 21:53 UTC
Vent 4 kt de nord/nord-ouest
Température -6°C
Humidité 25%
Pression 1013 hPa
Visibilité: 16.1 km
Ciel clair

METAR: PATK 282153Z 34004KT 10SM CLR M06/M23 A2991 RMK AO2 SLP139 T10611233

Heure: 13:33 (22:33 UTC)

Prévision

Le bulletin a été fait il y a 5 heures et 8 minutes, à 17:25 UTC
Prévision valable du 28 à 18 UTC au 29 à 18 UTC
Vent 5 kt de nord/nord-est
Visibilité: 10 km
Ciel clair

TAF: PATK 281725Z 2818/2918 03005KT P6SM SKC

Observations et prévisions météorologiques de plus de 4000 aéroports (messages METAR et TAF).

Les stations disponibles sont représentées par des disques jaunes et rouges sur la carte.

Passer la souris dessus pour voir le nom de la station.

Cliquer dessus pour voir les observations et prévisions météorologiques.

Pour changer de carte: cliquez sur les boutons verts avec une croix noire pour zoomer, sur le bouton vert avec un tiret pour effectuer un zoom arrière, ou sur les flèches vertes pour les cartes adjacentes.


METAR-TAF: